createdAt,value
2023-03-06T00:01:33.965Z,15.10
2023-03-06T00:04:08.286Z,13.90
2023-03-06T00:06:40.675Z,13.40
2023-03-06T00:09:13.201Z,14.50
2023-03-06T00:11:45.603Z,13.00
2023-03-06T00:14:18.067Z,13.30
2023-03-06T00:16:50.441Z,14.90
2023-03-06T00:19:22.983Z,14.40
2023-03-06T00:21:55.299Z,13.60
2023-03-06T00:24:27.640Z,13.20
2023-03-06T00:27:00.138Z,14.80
2023-03-06T00:29:32.437Z,12.10
2023-03-06T00:32:05.050Z,14.50
2023-03-06T00:34:37.958Z,13.00
2023-03-06T00:37:10.268Z,13.00
2023-03-06T00:39:42.589Z,13.70
2023-03-06T00:42:15.248Z,14.50
2023-03-06T00:44:48.185Z,15.10
2023-03-06T00:47:20.429Z,13.10
2023-03-06T00:49:52.861Z,12.40
2023-03-06T00:52:25.126Z,13.40
2023-03-06T00:54:57.514Z,11.90
2023-03-06T00:57:29.887Z,13.20
2023-03-06T01:00:02.201Z,13.80
2023-03-06T01:02:34.664Z,14.40
2023-03-06T01:05:08.244Z,10.60
2023-03-06T01:07:40.704Z,12.30
2023-03-06T01:10:15.072Z,13.20
2023-03-06T01:12:48.079Z,11.40
2023-03-06T01:15:20.941Z,12.90
2023-03-06T01:17:55.182Z,12.30
2023-03-06T01:20:28.564Z,12.20
2023-03-06T01:23:01.272Z,12.40
2023-03-06T01:25:33.752Z,13.70
2023-03-06T01:28:06.329Z,12.00
2023-03-06T01:30:38.594Z,11.90
2023-03-06T01:33:10.914Z,14.90
2023-03-06T01:35:43.829Z,11.30
2023-03-06T01:38:17.160Z,12.80
2023-03-06T01:40:49.489Z,12.00
2023-03-06T01:43:31.814Z,13.80
2023-03-06T01:46:38.894Z,12.60
2023-03-06T01:49:16.951Z,12.00
2023-03-06T01:51:54.369Z,14.20
2023-03-06T01:54:30.895Z,14.00
2023-03-06T01:57:06.940Z,13.00
2023-03-06T01:59:41.867Z,14.60
2023-03-06T02:02:15.995Z,12.90
2023-03-06T02:04:49.963Z,13.20
2023-03-06T02:07:24.183Z,15.10
2023-03-06T02:09:56.761Z,13.70
2023-03-06T02:12:29.777Z,13.00
2023-03-06T02:15:02.384Z,12.50
2023-03-06T02:17:37.236Z,13.40
2023-03-06T02:20:17.536Z,13.20
2023-03-06T02:22:55.584Z,15.60
2023-03-06T02:25:40.189Z,14.60
2023-03-06T02:28:15.638Z,12.90
2023-03-06T02:30:50.896Z,14.50
2023-03-06T02:33:27.070Z,11.60
2023-03-06T02:36:01.639Z,12.00
2023-03-06T02:38:38.828Z,12.50
2023-03-06T02:41:12.002Z,13.60
2023-03-06T02:43:47.253Z,13.60
2023-03-06T02:46:19.832Z,12.10
2023-03-06T02:48:52.254Z,12.60
2023-03-06T02:51:24.768Z,13.10
2023-03-06T02:53:57.256Z,13.20
2023-03-06T02:56:29.490Z,13.50
2023-03-06T02:59:01.867Z,13.70
2023-03-06T03:01:34.196Z,13.70
2023-03-06T03:04:06.984Z,15.70
2023-03-06T03:06:39.370Z,13.70
2023-03-06T03:09:11.736Z,13.60
2023-03-06T03:11:44.081Z,13.70
2023-03-06T03:14:16.793Z,14.00
2023-03-06T03:16:49.087Z,11.90
2023-03-06T03:19:21.466Z,12.30
2023-03-06T03:21:53.881Z,13.30
2023-03-06T03:24:26.565Z,12.90
2023-03-06T03:26:59.046Z,14.20
2023-03-06T03:29:31.402Z,15.30
2023-03-06T03:32:03.837Z,12.30
2023-03-06T03:34:36.314Z,14.40
2023-03-06T03:37:09.311Z,14.40
2023-03-06T03:39:41.610Z,14.60
2023-03-06T03:42:14.009Z,11.30
2023-03-06T03:44:46.529Z,14.20
2023-03-06T03:47:19.020Z,12.50
2023-03-06T03:49:51.332Z,14.60
2023-03-06T03:52:23.594Z,13.20
2023-03-06T03:54:56.162Z,12.60
2023-03-06T03:57:28.655Z,13.60
2023-03-06T04:00:01.064Z,13.30
2023-03-06T04:02:33.361Z,15.50
2023-03-06T04:05:06.349Z,15.50
2023-03-06T04:07:38.794Z,15.10
2023-03-06T04:10:14.298Z,13.70
2023-03-06T04:12:46.530Z,13.60
2023-03-06T04:15:18.791Z,17.30
2023-03-06T04:17:51.099Z,14.50
2023-03-06T04:20:23.841Z,13.10
2023-03-06T04:22:56.260Z,14.80
2023-03-06T04:25:28.665Z,15.80
2023-03-06T04:28:01.106Z,15.30
2023-03-06T04:30:34.248Z,14.00
2023-03-06T04:33:07.129Z,14.90
2023-03-06T04:35:39.709Z,14.00
2023-03-06T04:38:13.714Z,15.30
2023-03-06T04:40:46.358Z,14.10
2023-03-06T04:43:19.060Z,13.90
2023-03-06T04:45:51.541Z,12.90
2023-03-06T04:48:23.908Z,13.80
2023-03-06T04:50:56.248Z,12.70
2023-03-06T04:53:28.696Z,11.60
2023-03-06T04:56:01.091Z,13.20
2023-03-06T04:58:33.551Z,13.50
2023-03-06T05:01:06.092Z,14.10
2023-03-06T05:03:38.744Z,14.00
2023-03-06T05:06:11.571Z,11.90
2023-03-06T05:08:43.972Z,12.20
2023-03-06T05:11:16.536Z,15.10
2023-03-06T05:13:49.484Z,14.40
2023-03-06T05:16:21.822Z,14.70
2023-03-06T05:18:54.165Z,14.00
2023-03-06T05:21:26.697Z,15.30
2023-03-06T05:23:59.085Z,12.80
2023-03-06T05:26:31.604Z,12.80
2023-03-06T05:29:04.079Z,15.30
2023-03-06T05:31:36.521Z,12.40
2023-03-06T05:34:08.920Z,11.70
2023-03-06T05:36:41.289Z,15.90
2023-03-06T05:39:13.859Z,14.20
2023-03-06T05:41:46.129Z,13.40
2023-03-06T05:44:18.600Z,13.70
2023-03-06T05:46:52.051Z,16.00
2023-03-06T05:49:24.540Z,15.00
2023-03-06T05:51:56.871Z,15.20
2023-03-06T05:54:29.149Z,12.70
2023-03-06T05:57:01.503Z,17.80
2023-03-06T05:59:34.474Z,17.70
2023-03-06T06:02:07.026Z,14.00
2023-03-06T06:04:39.435Z,16.20
2023-03-06T06:07:16.406Z,17.80
2023-03-06T06:09:48.798Z,16.60
2023-03-06T06:12:21.281Z,15.50
2023-03-06T06:14:53.603Z,21.80
2023-03-06T06:17:25.981Z,18.90
2023-03-06T06:19:58.286Z,15.50
2023-03-06T06:22:30.661Z,17.60
2023-03-06T06:25:02.986Z,19.70
2023-03-06T06:27:35.460Z,14.30
2023-03-06T06:30:10.024Z,15.90
2023-03-06T06:32:42.347Z,14.70
2023-03-06T06:35:14.741Z,16.90
2023-03-06T06:37:47.076Z,15.10
2023-03-06T06:40:21.145Z,17.00
2023-03-06T06:42:55.410Z,15.60
2023-03-06T06:45:28.771Z,16.10
2023-03-06T06:48:01.173Z,17.90
2023-03-06T06:50:33.501Z,17.40
2023-03-06T06:53:05.893Z,16.10
2023-03-06T06:55:39.083Z,13.80
2023-03-06T06:58:11.635Z,16.00
2023-03-06T07:00:44.219Z,14.60
2023-03-06T07:03:16.684Z,14.70
2023-03-06T07:05:55.064Z,16.10
2023-03-06T07:08:27.952Z,17.60
2023-03-06T07:11:01.342Z,15.90
2023-03-06T07:13:33.582Z,17.70
2023-03-06T07:16:06.612Z,16.10
2023-03-06T07:18:38.873Z,15.80
2023-03-06T07:21:11.755Z,16.30
2023-03-06T07:23:44.369Z,14.20
2023-03-06T07:26:16.825Z,13.50
2023-03-06T07:28:53.194Z,14.00
2023-03-06T07:31:27.655Z,14.30
2023-03-06T07:34:00.198Z,16.80
2023-03-06T07:36:33.349Z,14.40
2023-03-06T07:39:05.724Z,15.20
2023-03-06T07:41:38.218Z,12.80
2023-03-06T07:44:10.775Z,13.30
2023-03-06T07:46:43.113Z,14.00
2023-03-06T07:49:15.554Z,15.60
2023-03-06T07:51:47.914Z,14.70
2023-03-06T07:54:20.270Z,16.00
2023-03-06T07:56:55.377Z,16.70
2023-03-06T07:59:27.969Z,13.70
2023-03-06T08:02:00.967Z,14.10
2023-03-06T08:04:34.229Z,16.40
2023-03-06T08:07:06.594Z,16.90
2023-03-06T08:09:39.151Z,15.30
2023-03-06T08:12:12.107Z,17.60
2023-03-06T08:14:44.479Z,19.30
2023-03-06T08:17:16.804Z,15.90
2023-03-06T08:19:49.232Z,17.40
2023-03-06T08:22:21.694Z,17.30
2023-03-06T08:24:57.717Z,17.10
2023-03-06T08:30:01.164Z,18.30
2023-03-06T08:32:35.711Z,15.20
2023-03-06T08:35:09.388Z,16.30
2023-03-06T08:37:41.730Z,16.00
2023-03-06T08:40:15.977Z,18.40
2023-03-06T08:42:50.580Z,17.60
2023-03-06T08:45:23.056Z,18.40
2023-03-06T08:47:55.447Z,20.50
2023-03-06T08:50:27.821Z,17.50
2023-03-06T08:53:00.757Z,18.80
2023-03-06T08:55:33.242Z,18.30
2023-03-06T08:58:05.533Z,20.00
2023-03-06T09:00:38.496Z,18.00
2023-03-06T09:03:11.515Z,16.30
2023-03-06T09:05:43.873Z,18.60
2023-03-06T09:08:16.751Z,21.30
2023-03-06T09:10:50.458Z,18.60
2023-03-06T09:13:23.281Z,19.60
2023-03-06T09:15:55.678Z,18.30
2023-03-06T09:18:30.311Z,26.20
2023-03-06T09:21:04.146Z,23.80
2023-03-06T09:23:39.641Z,25.90
2023-03-06T09:26:13.482Z,20.50
2023-03-06T09:28:45.966Z,23.30
2023-03-06T09:31:20.668Z,26.30
2023-03-06T09:33:53.003Z,25.70
2023-03-06T09:36:26.006Z,27.30
2023-03-06T09:38:58.483Z,23.40
2023-03-06T09:41:34.358Z,21.70
2023-03-06T09:44:09.341Z,26.00
2023-03-06T09:47:01.779Z,23.20
2023-03-06T09:49:43.540Z,22.70
2023-03-06T09:52:31.476Z,20.90
2023-03-06T09:55:12.707Z,26.00
2023-03-06T09:57:56.034Z,24.60
2023-03-06T10:00:33.644Z,24.90
2023-03-06T10:03:19.421Z,24.90
2023-03-06T10:05:56.433Z,27.20
2023-03-06T10:08:36.853Z,28.60
2023-03-06T10:11:12.860Z,27.80
2023-03-06T10:16:30.638Z,26.60
2023-03-06T10:19:05.321Z,28.50
2023-03-06T10:21:46.882Z,22.00
2023-03-06T10:24:33.170Z,25.80
2023-03-06T10:27:16.914Z,23.40
2023-03-06T10:30:03.173Z,25.90
2023-03-06T10:32:49.158Z,23.50
2023-03-06T10:35:30.813Z,24.50
2023-03-06T10:38:19.693Z,21.90
2023-03-06T10:41:05.067Z,26.10
2023-03-06T10:43:38.630Z,25.00
2023-03-06T10:46:12.583Z,22.60
2023-03-06T10:48:58.095Z,22.20
2023-03-06T10:51:31.903Z,22.30
2023-03-06T10:54:19.456Z,18.10
2023-03-06T10:56:51.853Z,15.90
2023-03-06T10:59:28.393Z,16.50
2023-03-06T11:02:21.759Z,15.50
2023-03-06T11:04:57.020Z,15.40
2023-03-06T11:07:31.013Z,15.50
2023-03-06T11:10:08.972Z,16.90
2023-03-06T11:12:43.518Z,12.50
2023-03-06T11:15:25.086Z,14.00
2023-03-06T11:18:01.401Z,14.70
2023-03-06T11:20:50.868Z,11.40
2023-03-06T11:23:31.466Z,14.10
2023-03-06T11:26:17.753Z,13.20
2023-03-06T11:31:26.018Z,13.60
2023-03-06T11:34:06.275Z,12.50
2023-03-06T11:36:44.371Z,14.40
2023-03-06T11:39:25.022Z,11.50
2023-03-06T11:42:06.764Z,14.00
2023-03-06T11:44:54.389Z,15.50
2023-03-06T11:47:30.781Z,13.50
2023-03-06T11:50:15.473Z,15.00
2023-03-06T11:52:53.027Z,16.30
2023-03-06T11:55:37.759Z,15.90
2023-03-06T11:58:32.889Z,15.10
2023-03-06T12:01:10.678Z,15.20
2023-03-06T12:04:04.576Z,14.50
2023-03-06T12:06:48.175Z,13.30
2023-03-06T12:09:30.021Z,15.70
2023-03-06T12:12:19.975Z,15.80
2023-03-06T12:15:27.085Z,14.30
2023-03-06T12:18:23.764Z,12.80
2023-03-06T12:21:05.827Z,17.70
2023-03-06T12:24:03.747Z,14.90
2023-03-06T12:26:56.164Z,15.70
2023-03-06T12:29:50.127Z,16.10
2023-03-06T12:32:35.361Z,13.00
2023-03-06T12:35:23.724Z,14.80
2023-03-06T12:38:08.340Z,17.60
2023-03-06T12:40:57.257Z,14.10
2023-03-06T12:44:05.763Z,15.30
2023-03-06T12:46:42.954Z,14.30
2023-03-06T12:49:31.545Z,15.20
2023-03-06T12:52:09.846Z,13.10
2023-03-06T12:54:44.602Z,15.10
2023-03-06T12:57:17.964Z,15.50
2023-03-06T12:59:52.025Z,14.10
2023-03-06T13:02:47.540Z,15.80
2023-03-06T13:05:55.066Z,16.10
2023-03-06T13:11:29.531Z,17.10
2023-03-06T13:14:01.917Z,16.30
2023-03-06T13:16:35.930Z,16.00
2023-03-06T13:19:19.576Z,16.10
2023-03-06T13:22:14.568Z,15.50
2023-03-06T13:24:47.536Z,17.20
2023-03-06T13:28:03.409Z,16.20
2023-03-06T13:30:47.331Z,14.40
2023-03-06T13:33:55.891Z,15.60
2023-03-06T13:36:31.194Z,13.30
2023-03-06T13:39:09.832Z,16.90
2023-03-06T13:41:54.575Z,15.60
2023-03-06T13:44:46.114Z,15.60
2023-03-06T13:48:09.733Z,16.20
2023-03-06T13:50:43.655Z,16.50
2023-03-06T13:53:57.357Z,18.00
2023-03-06T13:56:56.828Z,15.80
2023-03-06T13:59:54.399Z,16.20
2023-03-06T14:02:54.934Z,16.20
2023-03-06T14:05:35.674Z,19.90
2023-03-06T14:08:14.590Z,18.20
2023-03-06T14:10:48.586Z,19.10
2023-03-06T14:13:32.348Z,15.70
2023-03-06T14:16:21.787Z,17.70
2023-03-06T14:18:56.611Z,18.20
2023-03-06T14:21:33.743Z,17.50
2023-03-06T14:24:07.376Z,13.50
2023-03-06T14:26:47.814Z,15.50
2023-03-06T14:29:25.327Z,17.90
2023-03-06T14:31:59.137Z,16.60
2023-03-06T14:34:36.662Z,16.80
2023-03-06T14:37:20.672Z,16.70
2023-03-06T14:39:55.404Z,17.10
2023-03-06T14:42:29.637Z,50.80
2023-03-06T14:45:16.832Z,55.50
2023-03-06T14:47:52.940Z,21.70
2023-03-06T14:50:27.927Z,19.70
2023-03-06T14:53:04.437Z,18.50
2023-03-06T14:55:38.233Z,16.10
2023-03-06T14:58:17.283Z,17.60
2023-03-06T15:00:56.701Z,16.70
2023-03-06T15:03:42.799Z,15.40
2023-03-06T15:06:19.645Z,14.60
2023-03-06T15:08:59.934Z,14.30
2023-03-06T15:11:59.507Z,16.90
2023-03-06T15:14:35.231Z,16.50
2023-03-06T15:17:34.003Z,15.40
2023-03-06T15:20:09.908Z,17.00
2023-03-06T15:25:23.131Z,16.60
2023-03-06T15:27:57.374Z,13.90
2023-03-06T15:30:33.266Z,13.00
2023-03-06T15:35:58.384Z,15.90
2023-03-06T15:38:36.756Z,15.10
2023-03-06T15:41:21.637Z,14.90
2023-03-06T15:43:54.112Z,17.00
2023-03-06T15:46:26.367Z,15.70
2023-03-06T15:49:03.254Z,16.60
2023-03-06T15:51:35.855Z,16.70
2023-03-06T15:54:12.266Z,16.50
2023-03-06T15:56:47.543Z,17.00
2023-03-06T15:59:25.554Z,17.70
2023-03-06T16:01:58.640Z,17.40
2023-03-06T16:04:30.974Z,17.40
2023-03-06T16:07:03.309Z,17.40
2023-03-06T16:09:35.650Z,16.70
2023-03-06T16:12:13.329Z,20.20
2023-03-06T16:14:45.917Z,18.60
2023-03-06T16:17:18.638Z,18.30
2023-03-06T16:19:51.108Z,19.90
2023-03-06T16:22:23.569Z,18.80
2023-03-06T16:24:56.137Z,19.20
2023-03-06T16:27:29.084Z,23.40
2023-03-06T16:30:01.480Z,21.90
2023-03-06T16:32:34.945Z,19.70
2023-03-06T16:35:08.083Z,22.00
2023-03-06T16:37:40.467Z,18.70
2023-03-06T16:40:22.306Z,20.60
2023-03-06T16:42:55.341Z,22.30
2023-03-06T16:45:27.873Z,21.20
2023-03-06T16:48:00.494Z,19.00
2023-03-06T16:50:34.908Z,17.30
2023-03-06T16:53:07.371Z,22.60
2023-03-06T16:55:39.768Z,18.70
2023-03-06T16:58:15.116Z,18.60
2023-03-06T17:00:47.568Z,17.90
2023-03-06T17:03:20.540Z,20.60
2023-03-06T17:05:52.884Z,17.60
2023-03-06T17:08:25.163Z,17.60
2023-03-06T17:10:59.252Z,19.00
2023-03-06T17:13:31.712Z,18.30
2023-03-06T17:16:05.347Z,20.10
2023-03-06T17:18:37.693Z,18.40
2023-03-06T17:21:10.653Z,20.30
2023-03-06T17:23:43.085Z,21.00
2023-03-06T17:26:19.079Z,18.80
2023-03-06T17:28:51.910Z,18.60
2023-03-06T17:31:26.755Z,20.20
2023-03-06T17:34:00.777Z,24.70
2023-03-06T17:36:33.678Z,19.70
2023-03-06T17:39:06.719Z,18.60
2023-03-06T17:41:39.064Z,19.90
2023-03-06T17:44:12.225Z,20.80
2023-03-06T17:46:44.598Z,24.40
2023-03-06T17:49:19.568Z,19.70
2023-03-06T17:51:52.102Z,20.30
2023-03-06T17:54:26.175Z,21.10
2023-03-06T17:57:01.218Z,19.00
2023-03-06T17:59:35.206Z,19.60
2023-03-06T18:02:07.946Z,21.70
2023-03-06T18:04:41.349Z,18.60
2023-03-06T18:07:14.059Z,25.10
2023-03-06T18:09:49.297Z,24.30
2023-03-06T18:12:21.865Z,20.70
2023-03-06T18:14:54.432Z,21.60
2023-03-06T18:17:26.766Z,22.60
2023-03-06T18:19:59.258Z,23.70
2023-03-06T18:22:31.676Z,24.80
2023-03-06T18:25:04.219Z,23.20
2023-03-06T18:27:37.375Z,25.60
2023-03-06T18:30:11.899Z,26.50
2023-03-06T18:32:44.317Z,27.50
2023-03-06T18:35:16.661Z,27.10
2023-03-06T18:37:49.038Z,29.70
2023-03-06T18:40:24.523Z,29.30
2023-03-06T18:42:57.236Z,31.20
2023-03-06T18:45:29.825Z,31.40
2023-03-06T18:48:05.028Z,32.10
2023-03-06T18:50:39.203Z,37.50
2023-03-06T18:53:11.523Z,36.30
2023-03-06T18:55:49.777Z,35.20
2023-03-06T18:58:22.794Z,34.50
2023-03-06T19:00:55.652Z,33.90
2023-03-06T19:03:29.329Z,34.80
2023-03-06T19:06:05.194Z,37.20
2023-03-06T19:11:10.874Z,35.00
2023-03-06T19:13:43.422Z,34.10
2023-03-06T19:16:22.718Z,37.40
2023-03-06T19:18:55.823Z,32.40
2023-03-06T19:21:29.406Z,31.20
2023-03-06T19:24:04.715Z,33.50
2023-03-06T19:26:36.980Z,34.50
2023-03-06T19:29:09.373Z,36.40
2023-03-06T19:31:41.720Z,37.40
2023-03-06T19:34:13.964Z,35.00
2023-03-06T19:36:46.365Z,37.60
2023-03-06T19:39:18.597Z,38.60
2023-03-06T19:41:51.388Z,36.60
2023-03-06T19:44:24.355Z,35.50
2023-03-06T19:46:56.560Z,38.80
2023-03-06T19:49:28.826Z,36.20
2023-03-06T19:52:01.278Z,34.00
2023-03-06T19:54:33.654Z,32.00
2023-03-06T19:57:06.303Z,35.00
2023-03-06T19:59:38.834Z,34.90
2023-03-06T20:02:12.908Z,35.80
2023-03-06T20:04:45.244Z,38.60
2023-03-06T20:07:17.571Z,33.40
2023-03-06T20:09:50.270Z,32.60
2023-03-06T20:12:22.619Z,35.70
2023-03-06T20:14:55.190Z,32.20
2023-03-06T20:17:27.574Z,33.40
2023-03-06T20:20:00.218Z,38.80
2023-03-06T20:22:32.558Z,39.60
2023-03-06T20:25:05.398Z,39.20
2023-03-06T20:27:38.119Z,39.30
2023-03-06T20:30:13.181Z,41.50
2023-03-06T20:32:45.415Z,42.70
2023-03-06T20:35:18.012Z,46.00
2023-03-06T20:37:50.314Z,43.10
2023-03-06T20:40:22.692Z,47.40
2023-03-06T20:42:55.094Z,41.00
2023-03-06T20:45:27.398Z,46.60
2023-03-06T20:47:59.739Z,41.30
2023-03-06T20:50:32.129Z,39.30
2023-03-06T20:53:04.351Z,34.30
2023-03-06T20:55:38.722Z,32.50
2023-03-06T20:58:11.116Z,29.30
2023-03-06T21:00:43.560Z,31.80
2023-03-06T21:03:16.662Z,34.70
2023-03-06T21:05:50.257Z,35.80
2023-03-06T21:08:22.495Z,28.00
2023-03-06T21:10:55.173Z,32.70
2023-03-06T21:13:27.614Z,32.60
2023-03-06T21:15:59.929Z,30.20
2023-03-06T21:18:32.322Z,26.80
2023-03-06T21:21:08.447Z,29.80
2023-03-06T21:23:41.188Z,29.00
2023-03-06T21:26:16.530Z,28.80
2023-03-06T21:28:49.189Z,21.50
2023-03-06T21:31:23.017Z,28.20
2023-03-06T21:33:55.703Z,25.50
2023-03-06T21:36:28.356Z,27.60
2023-03-06T21:39:00.768Z,25.50
2023-03-06T21:41:33.416Z,26.40
2023-03-06T21:44:07.251Z,26.10
2023-03-06T21:46:39.577Z,26.60
2023-03-06T21:49:11.862Z,29.40
2023-03-06T21:51:44.221Z,28.90
2023-03-06T21:54:16.493Z,28.20
2023-03-06T21:56:49.081Z,29.80
2023-03-06T21:59:21.588Z,27.40
2023-03-06T22:01:54.053Z,27.40
2023-03-06T22:04:26.475Z,29.40
2023-03-06T22:06:58.851Z,24.80
2023-03-06T22:09:31.291Z,27.70
2023-03-06T22:12:03.825Z,27.10
2023-03-06T22:14:36.135Z,28.50
2023-03-06T22:17:08.616Z,27.10
2023-03-06T22:19:40.930Z,27.00
2023-03-06T22:22:13.317Z,27.10
2023-03-06T22:24:45.877Z,27.50
2023-03-06T22:27:18.447Z,28.20
2023-03-06T22:29:50.771Z,27.90
2023-03-06T22:32:23.268Z,28.30
2023-03-06T22:34:55.549Z,27.60
2023-03-06T22:37:27.906Z,28.00
2023-03-06T22:40:00.183Z,27.40
2023-03-06T22:42:32.617Z,30.00
2023-03-06T22:45:05.355Z,28.50
2023-03-06T22:47:40.544Z,28.90
2023-03-06T22:50:14.719Z,31.10
2023-03-06T22:52:47.111Z,29.70
2023-03-06T22:55:19.592Z,28.40
2023-03-06T22:57:51.988Z,21.70
2023-03-06T23:00:25.642Z,19.90
2023-03-06T23:02:58.000Z,19.00
2023-03-06T23:05:30.517Z,22.70
2023-03-06T23:08:02.787Z,26.00
2023-03-06T23:10:39.615Z,24.20
2023-03-06T23:13:11.942Z,24.60
2023-03-06T23:15:44.424Z,25.50
2023-03-06T23:18:17.319Z,27.20
2023-03-06T23:20:49.676Z,23.20
2023-03-06T23:23:22.823Z,22.20
2023-03-06T23:25:59.500Z,22.70
2023-03-06T23:28:32.159Z,21.20
2023-03-06T23:31:09.488Z,22.70
2023-03-06T23:33:42.719Z,25.40
2023-03-06T23:36:17.398Z,25.50
2023-03-06T23:38:49.864Z,28.60
2023-03-06T23:41:24.033Z,26.90
2023-03-06T23:43:56.345Z,25.70
2023-03-06T23:46:28.777Z,27.40
2023-03-06T23:49:01.266Z,27.00
2023-03-06T23:51:33.676Z,23.90
2023-03-06T23:54:07.484Z,24.10
2023-03-06T23:56:40.619Z,25.20
2023-03-06T23:59:14.216Z,26.10
